Time;durP1;ratioP1;P1;durP2;ratioP2;P2;SDS_P1;SDS_P2;PMS_P1;PMS_P2;Temp;Humidity;BMP_temperature;BMP_pressure;BME280_temperature;BME280_humidity;BME280_pressure;Samples;Min_cycle;Max_cycle;Signal;HPM_P1;HPM_P2
2023/01/07 00:00:45;;;;;;;63.40;21.13;;;;;;;;;;6314790;22;20030;-92
2023/01/07 00:03:11;;;;;;;76.40;22.55;;;;;;;;;;6315217;22;20269;-91
2023/01/07 00:05:37;;;;;;;79.70;24.63;;;;;;;;;;6314364;22;19999;-93
2023/01/07 00:08:03;;;;;;;95.78;29.30;;;;;;;;;;6313855;22;20003;-93
2023/01/07 00:10:29;;;;;;;90.80;29.95;;;;;;;;;;6313516;22;20003;-92
2023/01/07 00:12:55;;;;;;;94.68;31.20;;;;;;;;;;6315071;22;20034;-93
2023/01/07 00:15:21;;;;;;;66.90;24.17;;;;;;;;;;6313334;22;20003;-92
2023/01/07 00:17:47;;;;;;;48.13;18.60;;;;;;;;;;6314862;22;20003;-92
2023/01/07 00:20:13;;;;;;;35.55;16.15;;;;;;;;;;6313417;22;19999;-93
2023/01/07 00:22:39;;;;;;;49.50;20.25;;;;;;;;;;6314588;22;19999;-90
2023/01/07 00:25:05;;;;;;;114.25;33.90;;;;;;;;;;6313393;22;19995;-91
2023/01/07 00:27:32;;;;;;;111.90;38.50;;;;;;;;;;6314721;22;20049;-90
2023/01/07 00:29:58;;;;;;;102.50;34.85;;;;;;;;;;6314714;22;20072;-91
2023/01/07 00:32:46;;;;;;;69.20;28.30;;;;;;;;;;6314813;22;20003;-92
2023/01/07 00:35:21;;;;;;;59.53;23.85;;;;;;;;;;6314196;22;20370;-93
2023/01/07 00:37:50;;;;;;;59.78;25.80;;;;;;;;;;6313267;22;19999;-92
2023/01/07 00:40:17;;;;;;;63.33;30.30;;;;;;;;;;6314259;22;20422;-92
2023/01/07 00:42:53;;;;;;;66.82;34.55;;;;;;;;;;6314699;22;20255;-92
2023/01/07 00:45:20;;;;;;;57.85;33.50;;;;;;;;;;6314334;22;20004;-92
2023/01/07 00:47:46;;;;;;;54.35;32.40;;;;;;;;;;6312943;22;20010;-92
2023/01/07 00:56:38;;;;;;;76.68;35.17;;;;;;;;;;6314343;22;20041;-92
2023/01/07 00:59:04;;;;;;;77.43;35.03;;;;;;;;;;6312513;22;20019;-92
2023/01/07 01:01:30;;;;;;;81.50;36.65;;;;;;;;;;6314150;22;20026;-91
2023/01/07 01:03:56;;;;;;;90.35;39.25;;;;;;;;;;6313024;22;20018;-92
2023/01/07 01:06:22;;;;;;;94.20;40.85;;;;;;;;;;6314019;22;20369;-92
2023/01/07 01:08:48;;;;;;;96.28;40.90;;;;;;;;;;6313964;22;20006;-93
2023/01/07 01:11:15;;;;;;;88.47;39.85;;;;;;;;;;6314058;22;20362;-92
2023/01/07 01:13:42;;;;;;;83.85;42.70;;;;;;;;;;6314237;22;20011;-91
2023/01/07 01:16:09;;;;;;;77.75;42.90;;;;;;;;;;6314368;22;20010;-92
2023/01/07 01:18:36;;;;;;;78.45;44.72;;;;;;;;;;6313750;22;20086;-91
2023/01/07 01:21:37;;;;;;;84.75;49.30;;;;;;;;;;6314024;22;20003;-91
2023/01/07 01:24:03;;;;;;;75.70;43.15;;;;;;;;;;6312816;22;20369;-91
2023/01/07 01:26:29;;;;;;;68.97;39.65;;;;;;;;;;6312972;22;20031;-92
2023/01/07 01:28:55;;;;;;;78.45;40.13;;;;;;;;;;6312865;22;20043;-92
2023/01/07 01:31:21;;;;;;;96.88;40.63;;;;;;;;;;6312928;22;20014;-91
2023/01/07 01:33:47;;;;;;;77.65;38.47;;;;;;;;;;6314138;22;20004;-89
2023/01/07 01:36:13;;;;;;;88.43;39.65;;;;;;;;;;6312668;22;20003;-92
2023/01/07 01:38:39;;;;;;;85.13;40.17;;;;;;;;;;6314021;22;20203;-92
2023/01/07 01:41:06;;;;;;;87.20;39.42;;;;;;;;;;6313002;22;20022;-92
2023/01/07 01:43:33;;;;;;;75.68;37.10;;;;;;;;;;6314305;22;20007;-91
2023/01/07 01:46:23;;;;;;;72.15;39.45;;;;;;;;;;6313635;22;20376;-93
2023/01/07 01:55:05;;;;;;;;;;;;;;;;;;6220358;23;20382;-94
2023/01/07 01:57:33;;;;;;;60.88;36.97;;;;;;;;;;6219373;23;19903;-92
2023/01/07 01:59:59;;;;;;;62.25;37.55;;;;;;;;;;6194160;23;20020;-90
2023/01/07 02:02:29;;;;;;;63.92;39.47;;;;;;;;;;6219646;23;20005;-91
2023/01/07 02:07:58;;;;;;;74.47;38.78;;;;;;;;;;6219588;23;20055;-90
2023/01/07 02:10:25;;;;;;;71.18;40.05;;;;;;;;;;6194570;23;20011;-91
2023/01/07 02:13:12;;;;;;;63.40;38.13;;;;;;;;;;6219473;23;20008;-92
2023/01/07 02:15:48;;;;;;;58.67;36.10;;;;;;;;;;6219788;23;20009;-92
2023/01/07 02:18:17;;;;;;;58.75;37.47;;;;;;;;;;6219495;23;20073;-91
2023/01/07 02:20:50;;;;;;;67.22;42.70;;;;;;;;;;6194290;23;20025;-92
2023/01/07 02:23:35;;;;;;;104.93;63.78;;;;;;;;;;6194104;23;20012;-92
2023/01/07 02:26:01;;;;;;;114.65;67.18;;;;;;;;;;6219513;23;20345;-93
2023/01/07 02:28:36;;;;;;;109.13;62.53;;;;;;;;;;6279299;22;20007;-92
2023/01/07 02:31:05;;;;;;;91.38;53.65;;;;;;;;;;6313665;22;20436;-92
2023/01/07 02:33:36;;;;;;;96.68;56.05;;;;;;;;;;6313116;22;20003;-90
2023/01/07 02:36:24;;;;;;;92.90;48.83;;;;;;;;;;6313174;22;20007;-92
2023/01/07 02:38:50;;;;;;;95.88;44.90;;;;;;;;;;6311461;22;20461;-93
2023/01/07 02:41:19;;;;;;;73.28;43.33;;;;;;;;;;6312028;22;20000;-92
2023/01/07 02:43:48;;;;;;;92.60;44.65;;;;;;;;;;6313594;22;20084;-93
2023/01/07 02:46:19;;;;;;;110.32;50.22;;;;;;;;;;6313520;22;19999;-92
2023/01/07 02:48:45;;;;;;;114.43;50.13;;;;;;;;;;6313601;22;20006;-92
2023/01/07 02:51:11;;;;;;;103.35;49.88;;;;;;;;;;6312159;22;20027;-92
2023/01/07 02:53:39;;;;;;;103.28;50.88;;;;;;;;;;6313264;22;20353;-92
2023/01/07 02:56:21;;;;;;;123.43;51.25;;;;;;;;;;6311937;22;20003;-91
2023/01/07 02:59:06;;;;;;;123.88;52.25;;;;;;;;;;6311547;22;20088;-90
2023/01/07 03:01:38;;;;;;;125.65;53.88;;;;;;;;;;6311754;22;20396;-90
2023/01/07 03:04:04;;;;;;;;;;;;;;;;;;6312565;22;19999;-92
2023/01/07 03:09:49;;;;;;;111.55;52.72;;;;;;;;;;6312985;22;20014;-93
2023/01/07 03:12:29;;;;;;;108.85;49.47;;;;;;;;;;6313280;22;20014;-93
2023/01/07 03:14:59;;;;;;;99.28;47.92;;;;;;;;;;6313279;22;20003;-93
2023/01/07 03:17:27;;;;;;;114.90;56.22;;;;;;;;;;6313380;22;19999;-93
2023/01/07 03:23:12;;;;;;;88.88;49.90;;;;;;;;;;6313070;22;20006;-92
2023/01/07 03:25:43;;;;;;;111.65;59.17;;;;;;;;;;6312676;22;20069;-91
2023/01/07 03:28:11;;;;;;;98.50;50.47;;;;;;;;;;6313234;22;20358;-92
2023/01/07 03:30:38;;;;;;;90.70;48.42;;;;;;;;;;6313248;22;20053;-93
2023/01/07 03:33:10;;;;;;;81.80;47.88;;;;;;;;;;6312220;22;20262;-91
2023/01/07 03:35:36;;;;;;;;;;;;;;;;;;6313651;22;20003;-93
2023/01/07 03:38:02;;;;;;;126.35;62.28;;;;;;;;;;6311670;22;20284;-96
2023/01/07 03:40:29;;;;;;;96.28;51.05;;;;;;;;;;6313277;22;20021;-95
2023/01/07 03:42:55;;;;;;;81.30;46.30;;;;;;;;;;6311578;22;20000;-93
2023/01/07 03:45:22;;;;;;;74.03;45.25;;;;;;;;;;6312004;22;20007;-92
2023/01/07 03:47:49;;;;;;;74.15;44.33;;;;;;;;;;6313623;22;20030;-92
2023/01/07 03:50:16;;;;;;;89.55;51.92;;;;;;;;;;6311895;22;20003;-94
2023/01/07 03:52:42;;;;;;;124.95;53.25;;;;;;;;;;6311671;22;20011;-91
2023/01/07 03:55:09;;;;;;;109.70;53.70;;;;;;;;;;6311741;22;20429;-93
2023/01/07 03:57:35;;;;;;;93.10;53.30;;;;;;;;;;6311331;22;20077;-93
2023/01/07 04:00:01;;;;;;;103.22;56.95;;;;;;;;;;6311328;22;20047;-93
2023/01/07 04:02:27;;;;;;;96.68;54.03;;;;;;;;;;6311595;22;20081;-92
2023/01/07 04:04:53;;;;;;;80.30;49.10;;;;;;;;;;6311649;22;19995;-93
2023/01/07 04:07:19;;;;;;;93.80;53.80;;;;;;;;;;6312761;22;20319;-91
2023/01/07 04:09:46;;;;;;;105.35;58.05;;;;;;;;;;6312932;22;20003;-92
2023/01/07 04:12:13;;;;;;;112.95;54.72;;;;;;;;;;6311644;22;20011;-92
2023/01/07 04:14:39;;;;;;;118.78;54.72;;;;;;;;;;6311926;22;20026;-91
2023/01/07 04:17:05;;;;;;;101.28;52.28;;;;;;;;;;6312908;22;20086;-93
2023/01/07 04:19:32;;;;;;;95.80;51.75;;;;;;;;;;6311996;22;20009;-91
2023/01/07 04:25:01;;;;;;;114.80;51.55;;;;;;;;;;6314146;22;20029;-94
2023/01/07 04:27:29;;;;;;;102.53;52.03;;;;;;;;;;6315056;22;20071;-93
2023/01/07 04:29:55;;;;;;;110.57;58.08;;;;;;;;;;6315000;22;19999;-94
2023/01/07 04:32:21;;;;;;;116.93;62.80;;;;;;;;;;6314470;22;19992;-91
2023/01/07 04:34:47;;;;;;;123.03;64.40;;;;;;;;;;6314791;22;20000;-93
2023/01/07 04:40:17;;;;;;;103.20;51.53;;;;;;;;;;6314356;22;20095;-90
2023/01/07 04:42:43;;;;;;;99.75;52.25;;;;;;;;;;6314676;22;19995;-93
2023/01/07 04:45:09;;;;;;;85.97;49.65;;;;;;;;;;6314937;22;19999;-93
2023/01/07 04:47:35;;;;;;;93.28;51.75;;;;;;;;;;6314745;22;20019;-92
2023/01/07 04:50:01;;;;;;;101.35;55.30;;;;;;;;;;6313126;22;20045;-93
2023/01/07 04:58:34;;;;;;;123.75;63.03;;;;;;;;;;6313738;22;20030;-92
2023/01/07 05:01:04;;;;;;;106.00;56.03;;;;;;;;;;6313121;22;20007;-93
2023/01/07 05:03:33;;;;;;;97.32;49.28;;;;;;;;;;6313201;22;20034;-91
2023/01/07 05:06:00;;;;;;;92.22;49.03;;;;;;;;;;6313013;22;20003;-92
2023/01/07 05:08:27;;;;;;;104.50;56.58;;;;;;;;;;6314352;22;20007;-90
2023/01/07 05:10:53;;;;;;;112.35;62.42;;;;;;;;;;6312915;22;19999;-93
2023/01/07 05:13:20;;;;;;;304.67;111.60;;;;;;;;;;6314482;22;20231;-92
2023/01/07 05:15:46;;;;;;;406.58;155.20;;;;;;;;;;6314884;22;20045;-93
2023/01/07 05:18:12;;;;;;;221.88;110.68;;;;;;;;;;6314233;22;20082;-92
2023/01/07 05:20:39;;;;;;;281.48;143.38;;;;;;;;;;6314768;22;20041;-92
2023/01/07 05:23:05;;;;;;;250.70;156.63;;;;;;;;;;6314217;22;19999;-92
2023/01/07 05:25:32;;;;;;;278.55;198.20;;;;;;;;;;6312984;22;20072;-93
2023/01/07 05:27:58;;;;;;;108.40;72.93;;;;;;;;;;6312722;22;20009;-92
2023/01/07 05:30:24;;;;;;;86.90;54.13;;;;;;;;;;6312812;22;20265;-91
2023/01/07 05:32:50;;;;;;;87.72;54.97;;;;;;;;;;6314181;22;19999;-91
2023/01/07 05:35:16;;;;;;;74.00;48.80;;;;;;;;;;6314029;22;20019;-90
2023/01/07 05:38:01;;;;;;;78.95;49.20;;;;;;;;;;6313979;22;20003;-92
2023/01/07 05:40:27;;;;;;;78.55;47.17;;;;;;;;;;6312907;22;20022;-91
2023/01/07 05:42:53;;;;;;;74.13;45.28;;;;;;;;;;6313731;22;19995;-92
2023/01/07 05:45:22;;;;;;;73.30;44.55;;;;;;;;;;6313730;22;20448;-93
2023/01/07 05:47:48;;;;;;;75.13;45.50;;;;;;;;;;6314095;22;19999;-94
2023/01/07 05:50:14;;;;;;;75.03;46.90;;;;;;;;;;6312624;22;20358;-93
2023/01/07 05:52:41;;;;;;;76.10;45.45;;;;;;;;;;6312563;22;20003;-91
2023/01/07 05:55:07;;;;;;;84.95;48.55;;;;;;;;;;6313923;22;19999;-92
2023/01/07 05:57:33;;;;;;;86.70;51.17;;;;;;;;;;6313590;22;20006;-91
2023/01/07 05:59:59;;;;;;;89.45;50.47;;;;;;;;;;6313794;22;20010;-92
2023/01/07 06:02:25;;;;;;;84.05;48.75;;;;;;;;;;6312324;22;19999;-92
2023/01/07 06:04:51;;;;;;;78.30;46.83;;;;;;;;;;6314005;22;20003;-92
2023/01/07 06:07:17;;;;;;;73.32;46.17;;;;;;;;;;6312328;22;20003;-94
2023/01/07 06:09:44;;;;;;;74.70;44.15;;;;;;;;;;6312477;22;20014;-93
2023/01/07 06:12:10;;;;;;;79.15;45.90;;;;;;;;;;6312552;22;20010;-95
2023/01/07 06:14:36;;;;;;;77.50;46.58;;;;;;;;;;6313794;22;20003;-94
2023/01/07 06:17:02;;;;;;;74.28;45.67;;;;;;;;;;6313636;22;20007;-94
2023/01/07 06:19:28;;;;;;;74.43;44.20;;;;;;;;;;6312412;22;20007;-93
2023/01/07 06:21:54;;;;;;;75.22;44.80;;;;;;;;;;6312250;22;19999;-92
2023/01/07 06:24:20;;;;;;;72.18;45.35;;;;;;;;;;6313681;22;20019;-93
2023/01/07 06:26:46;;;;;;;71.53;44.60;;;;;;;;;;6313554;22;20015;-93
2023/01/07 06:29:12;;;;;;;70.57;45.42;;;;;;;;;;6312503;22;20015;-92
2023/01/07 06:31:38;;;;;;;70.50;44.67;;;;;;;;;;6313354;22;20023;-94
2023/01/07 06:34:05;;;;;;;64.80;42.40;;;;;;;;;;6312301;22;20007;-91
2023/01/07 06:36:31;;;;;;;80.90;50.65;;;;;;;;;;6313564;22;20027;-93
2023/01/07 06:38:57;;;;;;;78.20;47.30;;;;;;;;;;6313553;22;20031;-90
2023/01/07 06:41:23;;;;;;;82.80;49.78;;;;;;;;;;6312136;22;19996;-92
2023/01/07 06:43:49;;;;;;;86.43;52.28;;;;;;;;;;6313134;22;19999;-91
2023/01/07 06:46:15;;;;;;;76.25;47.97;;;;;;;;;;6311983;22;20004;-92
2023/01/07 06:48:41;;;;;;;75.18;47.33;;;;;;;;;;6311962;22;20052;-92
2023/01/07 06:51:07;;;;;;;77.95;48.83;;;;;;;;;;6312856;22;20078;-92
2023/01/07 06:53:33;;;;;;;83.22;53.75;;;;;;;;;;6313286;22;20000;-91
2023/01/07 06:55:59;;;;;;;115.28;62.33;;;;;;;;;;6313311;22;20113;-91
2023/01/07 06:58:25;;;;;;;106.70;61.95;;;;;;;;;;6311660;22;20023;-92
2023/01/07 07:00:51;;;;;;;96.97;57.53;;;;;;;;;;6313662;22;20370;-90
2023/01/07 07:03:17;;;;;;;86.82;53.35;;;;;;;;;;6312045;22;20011;-91
2023/01/07 07:06:15;;;;;;;98.72;56.67;;;;;;;;;;6311789;22;20050;-91
2023/01/07 07:08:41;;;;;;;94.28;55.45;;;;;;;;;;6313446;22;20003;-91
2023/01/07 07:11:07;;;;;;;111.20;59.40;;;;;;;;;;6312373;22;20011;-90
2023/01/07 07:13:34;;;;;;;104.40;56.05;;;;;;;;;;6313557;22;20022;-90
2023/01/07 07:16:00;;;;;;;80.93;47.90;;;;;;;;;;6313402;22;20038;-91
2023/01/07 07:18:26;;;;;;;80.45;46.17;;;;;;;;;;6311690;22;20049;-91
2023/01/07 07:24:14;;;;;;;100.65;54.05;;;;;;;;;;6313016;22;20085;-90
2023/01/07 07:26:40;;;;;;;86.43;50.53;;;;;;;;;;6311848;22;20079;-91
2023/01/07 07:29:06;;;;;;;78.88;47.92;;;;;;;;;;6311988;22;20007;-90
2023/01/07 07:31:32;;;;;;;74.35;46.33;;;;;;;;;;6313315;22;20091;-93
2023/01/07 07:33:58;;;;;;;78.97;45.67;;;;;;;;;;6313477;22;19999;-91
2023/01/07 07:36:24;;;;;;;92.90;51.17;;;;;;;;;;6313388;22;20366;-91
2023/01/07 07:38:51;;;;;;;111.53;58.80;;;;;;;;;;6313022;22;20015;-92
2023/01/07 07:41:17;;;;;;;136.55;70.88;;;;;;;;;;6311808;22;20007;-91
2023/01/07 07:43:43;;;;;;;138.60;72.22;;;;;;;;;;6312896;22;19999;-92
2023/01/07 07:46:09;;;;;;;143.82;75.28;;;;;;;;;;6313370;22;20007;-92
2023/01/07 07:48:35;;;;;;;108.90;62.13;;;;;;;;;;6313046;22;20003;-91
2023/01/07 07:51:32;;;;;;;84.53;51.05;;;;;;;;;;6313394;22;20049;-91
2023/01/07 07:53:58;;;;;;;91.43;50.90;;;;;;;;;;6311798;22;20243;-92
2023/01/07 07:56:24;;;;;;;97.95;58.28;;;;;;;;;;6312598;22;20010;-91
2023/01/07 07:58:50;;;;;;;93.20;59.70;;;;;;;;;;6312798;22;20019;-92
2023/01/07 08:01:16;;;;;;;85.38;53.80;;;;;;;;;;6314694;22;20027;-92
2023/01/07 08:03:42;;;;;;;85.88;54.33;;;;;;;;;;6313453;22;20003;-91
2023/01/07 08:06:09;;;;;;;86.63;54.17;;;;;;;;;;6315067;22;19999;-91
2023/01/07 08:08:35;;;;;;;82.10;52.00;;;;;;;;;;6315235;22;20003;-90
2023/01/07 08:11:02;;;;;;;82.07;51.63;;;;;;;;;;6313907;22;20038;-95
2023/01/07 08:13:30;;;;;;;81.53;50.97;;;;;;;;;;6313556;22;20007;-93
2023/01/07 08:15:57;;;;;;;88.95;52.75;;;;;;;;;;6313745;22;20009;-94
2023/01/07 08:18:24;;;;;;;115.22;68.25;;;;;;;;;;6317890;22;20385;-94
2023/01/07 08:20:50;;;;;;;153.45;92.18;;;;;;;;;;6317644;22;20000;-94
2023/01/07 08:23:16;;;;;;;156.70;89.63;;;;;;;;;;6317094;22;19995;-93
2023/01/07 08:31:12;;;;;;;131.88;65.95;;;;;;;;;;6251093;22;20030;-91
2023/01/07 08:33:40;;;;;;;141.77;65.43;;;;;;;;;;6292071;22;20011;-96
2023/01/07 08:36:08;;;;;;;127.45;61.53;;;;;;;;;;6270973;22;19995;-96
2023/01/07 08:38:34;;;;;;;120.40;58.83;;;;;;;;;;6283747;22;20388;-94
2023/01/07 08:41:00;;;;;;;134.88;62.88;;;;;;;;;;6283213;22;19999;-93
2023/01/07 08:43:27;;;;;;;121.63;60.28;;;;;;;;;;6284254;22;20007;-93
2023/01/07 08:45:53;;;;;;;110.60;58.33;;;;;;;;;;6283635;22;20007;-92
2023/01/07 08:48:19;;;;;;;114.03;65.70;;;;;;;;;;6284177;22;20354;-94
2023/01/07 08:50:51;;;;;;;99.88;58.58;;;;;;;;;;6282637;22;20462;-96
2023/01/07 08:53:18;;;;;;;89.15;53.70;;;;;;;;;;6284003;22;20358;-92
2023/01/07 08:55:44;;;;;;;90.22;49.75;;;;;;;;;;6283358;22;20003;-93
2023/01/07 08:58:12;;;;;;;91.53;49.53;;;;;;;;;;6284677;22;20254;-92
2023/01/07 09:00:39;;;;;;;90.70;51.10;;;;;;;;;;6284003;22;20000;-94
2023/01/07 09:03:05;;;;;;;78.43;47.17;;;;;;;;;;6283324;22;20042;-93
2023/01/07 09:05:31;;;;;;;69.20;44.50;;;;;;;;;;6283767;22;20016;-93
2023/01/07 09:11:02;;;;;;;64.32;41.38;;;;;;;;;;6283057;22;20010;-92
2023/01/07 09:13:28;;;;;;;67.57;42.22;;;;;;;;;;6283117;22;20003;-89
2023/01/07 09:15:54;;;;;;;67.30;42.20;;;;;;;;;;6282088;22;20030;-90
2023/01/07 09:18:20;;;;;;;67.50;42.70;;;;;;;;;;6283424;22;20397;-92
2023/01/07 09:20:46;;;;;;;67.20;43.78;;;;;;;;;;6282463;22;20049;-91
2023/01/07 09:23:12;;;;;;;74.80;45.05;;;;;;;;;;6283094;22;20000;-92
2023/01/07 09:25:38;;;;;;;67.65;40.63;;;;;;;;;;6282926;22;20351;-90
2023/01/07 09:28:04;;;;;;;64.25;38.78;;;;;;;;;;6281926;22;20131;-91
2023/01/07 09:30:30;;;;;;;69.78;42.00;;;;;;;;;;6281473;22;20004;-90
2023/01/07 09:32:57;;;;;;;68.25;42.13;;;;;;;;;;6283349;22;20280;-91
2023/01/07 09:35:23;;;;;;;87.70;47.47;;;;;;;;;;6283288;22;20007;-96
2023/01/07 09:40:53;;;;;;;69.70;42.17;;;;;;;;;;6282957;22;20002;-95
2023/01/07 09:43:38;;;;;;;68.05;43.13;;;;;;;;;;6282553;22;20086;-95
2023/01/07 09:46:08;;;;;;;65.13;39.58;;;;;;;;;;6282817;22;20278;-92
2023/01/07 09:48:56;;;;;;;60.47;37.05;;;;;;;;;;6282051;22;20003;-92
2023/01/07 09:51:33;;;;;;;57.70;37.80;;;;;;;;;;6282963;22;20370;-92
2023/01/07 09:54:01;;;;;;;62.22;38.28;;;;;;;;;;6283290;22;20004;-89
2023/01/07 09:56:29;;;;;;;57.05;36.10;;;;;;;;;;6281720;22;20079;-90
2023/01/07 09:58:57;;;;;;;63.25;38.47;;;;;;;;;;6282842;22;20008;-89
2023/01/07 10:01:23;;;;;;;56.47;34.13;;;;;;;;;;6282663;22;20003;-89
2023/01/07 10:04:07;;;;;;;51.35;32.95;;;;;;;;;;6281513;22;20014;-90
2023/01/07 10:09:52;;;;;;;66.95;39.22;;;;;;;;;;6282379;22;20015;-90
2023/01/07 10:12:25;;;;;;;61.47;38.47;;;;;;;;;;6282900;22;20003;-90
2023/01/07 10:15:03;;;;;;;66.35;39.45;;;;;;;;;;6282520;22;20254;-91
2023/01/07 10:17:44;;;;;;;65.63;39.33;;;;;;;;;;6282314;22;20057;-89
2023/01/07 10:20:29;;;;;;;55.22;35.97;;;;;;;;;;6282869;22;20373;-89
2023/01/07 10:29:08;;;;;;;55.38;35.13;;;;;;;;;;6282367;22;20003;-91
2023/01/07 10:31:34;;;;;;;53.37;34.57;;;;;;;;;;6280814;22;20016;-91
2023/01/07 10:34:00;;;;;;;55.38;33.15;;;;;;;;;;6282126;22;20288;-94
2023/01/07 10:36:27;;;;;;;60.55;38.65;;;;;;;;;;6283207;22;20019;-93
2023/01/07 10:39:27;;;;;;;55.53;35.90;;;;;;;;;;6281783;22;20389;-91
2023/01/07 10:42:12;;;;;;;52.85;34.08;;;;;;;;;;6281436;22;20023;-90
2023/01/07 10:44:47;;;;;;;55.83;33.15;;;;;;;;;;6280816;22;20046;-90
2023/01/07 10:47:19;;;;;;;56.58;33.67;;;;;;;;;;6282711;22;20000;-88
2023/01/07 10:49:45;;;;;;;;;;;;;;;;;;6282668;22;20008;-91
2023/01/07 10:52:20;;;;;;;58.10;35.25;;;;;;;;;;6280618;22;19899;-91
2023/01/07 10:55:02;;;;;;;57.83;36.30;;;;;;;;;;6282437;22;20027;-92
2023/01/07 10:57:29;;;;;;;87.93;41.25;;;;;;;;;;6282229;22;20071;-92
2023/01/07 11:00:04;;;;;;;80.40;41.05;;;;;;;;;;6280789;22;20092;-92
2023/01/07 11:02:30;;;;;;;69.22;38.40;;;;;;;;;;6281900;22;20047;-91
2023/01/07 11:04:58;;;;;;;75.07;41.47;;;;;;;;;;6281921;22;20095;-92
2023/01/07 11:07:43;;;;;;;73.22;39.55;;;;;;;;;;6281770;22;20319;-94
2023/01/07 11:10:14;;;;;;;62.47;38.38;;;;;;;;;;6282071;22;20066;-90
2023/01/07 11:12:42;;;;;;;62.28;36.92;;;;;;;;;;6281327;22;20079;-89
2023/01/07 11:15:14;;;;;;;62.20;37.40;;;;;;;;;;6282441;22;20000;-91
2023/01/07 11:17:43;;;;;;;63.58;40.35;;;;;;;;;;6281548;22;20145;-93
2023/01/07 11:20:12;;;;;;;76.88;42.55;;;;;;;;;;6282749;22;20101;-93
2023/01/07 11:22:39;;;;;;;71.22;41.97;;;;;;;;;;6282025;22;20058;-93
2023/01/07 11:25:23;;;;;;;70.68;43.17;;;;;;;;;;6282340;22;20082;-94
2023/01/07 11:27:50;;;;;;;70.45;42.17;;;;;;;;;;6282333;22;20023;-93
2023/01/07 11:30:31;;;;;;;75.15;43.38;;;;;;;;;;6280589;22;20008;-91
2023/01/07 11:33:05;;;;;;;67.33;38.17;;;;;;;;;;6282171;22;20081;-92
2023/01/07 11:35:31;;;;;;;65.50;40.25;;;;;;;;;;6284513;22;20220;-91
2023/01/07 11:37:58;;;;;;;62.63;39.25;;;;;;;;;;6282768;22;20004;-88
2023/01/07 11:40:26;;;;;;;64.43;39.53;;;;;;;;;;6282497;22;20003;-90
2023/01/07 11:42:55;;;;;;;61.15;37.30;;;;;;;;;;6282818;22;20003;-89
2023/01/07 11:45:23;;;;;;;62.63;39.13;;;;;;;;;;6284020;22;20000;-90
2023/01/07 11:47:49;;;;;;;61.97;38.30;;;;;;;;;;6284194;22;19999;-90
2023/01/07 11:50:34;;;;;;;63.08;36.50;;;;;;;;;;6284139;22;20008;-89
2023/01/07 11:53:13;;;;;;;64.85;37.10;;;;;;;;;;6283769;22;20052;-88
2023/01/07 11:55:39;;;;;;;58.53;35.78;;;;;;;;;;6284059;22;19999;-93
2023/01/07 11:58:06;;;;;;;56.88;34.10;;;;;;;;;;6283513;22;20019;-92
2023/01/07 12:00:32;;;;;;;52.33;33.63;;;;;;;;;;6284144;22;20072;-91
2023/01/07 12:02:59;;;;;;;54.75;33.33;;;;;;;;;;6282083;22;20008;-91
2023/01/07 12:05:26;;;;;;;57.85;34.17;;;;;;;;;;6284013;22;20016;-91
2023/01/07 12:10:41;;;;;;;57.38;35.28;;;;;;;;;;6241940;22;20055;-96
2023/01/07 12:13:20;;;;;;;59.63;35.78;;;;;;;;;;6224661;23;20005;-94
2023/01/07 12:15:51;;;;;;;59.88;36.97;;;;;;;;;;6196205;23;20267;-93
2023/01/07 12:18:20;;;;;;;60.53;36.40;;;;;;;;;;6222782;23;20011;-94
2023/01/07 12:21:04;;;;;;;56.90;35.30;;;;;;;;;;6196159;23;20004;-93
2023/01/07 12:26:47;;;;;;;60.38;36.25;;;;;;;;;;6222248;23;20092;-91
2023/01/07 12:29:28;;;;;;;56.30;34.38;;;;;;;;;;6222083;23;20264;-92
2023/01/07 12:31:54;;;;;;;56.40;36.30;;;;;;;;;;6196366;23;20059;-84
2023/01/07 12:34:39;;;;;;;59.63;37.45;;;;;;;;;;6196764;23;20011;-93
2023/01/07 12:40:15;;;;;;;65.00;41.13;;;;;;;;;;6222240;23;20023;-92
2023/01/07 12:42:50;;;;;;;67.80;40.45;;;;;;;;;;6222848;23;20019;-92
2023/01/07 12:45:27;;;;;;;69.20;40.88;;;;;;;;;;6221663;23;20001;-93
2023/01/07 12:47:58;;;;;;;61.72;39.33;;;;;;;;;;6222424;23;20287;-93
2023/01/07 12:50:39;;;;;;;67.07;43.25;;;;;;;;;;6222557;23;20005;-92
2023/01/07 12:53:18;;;;;;;68.30;42.10;;;;;;;;;;6222861;23;20005;-91
2023/01/07 12:56:10;;;;;;;62.72;38.97;;;;;;;;;;6222213;23;20083;-91
2023/01/07 12:58:45;;;;;;;67.15;40.20;;;;;;;;;;6216417;23;20394;-91
2023/01/07 13:01:30;;;;;;;63.75;38.35;;;;;;;;;;6222209;23;20007;-92
2023/01/07 13:03:59;;;;;;;56.85;34.72;;;;;;;;;;6222161;23;20000;-91
2023/01/07 13:06:35;;;;;;;65.53;36.90;;;;;;;;;;6222558;23;20020;-92
2023/01/07 13:12:56;;;;;;;54.20;32.72;;;;;;;;;;6249515;23;20018;-93
2023/01/07 13:15:27;;;;;;;50.63;33.47;;;;;;;;;;6220511;23;20017;-93
2023/01/07 13:17:57;;;;;;;47.78;29.45;;;;;;;;;;6221708;23;20015;-93
2023/01/07 13:20:38;;;;;;;48.83;30.05;;;;;;;;;;6221792;23;20368;-92
2023/01/07 13:23:04;;;;;;;49.15;32.22;;;;;;;;;;6220651;23;20047;-94
2023/01/07 13:25:34;;;;;;;49.08;31.00;;;;;;;;;;6221781;23;20256;-92
2023/01/07 13:28:19;;;;;;;49.55;33.90;;;;;;;;;;6221833;23;20012;-94
2023/01/07 13:30:59;;;;;;;50.83;31.77;;;;;;;;;;6222222;23;20241;-91
2023/01/07 13:33:34;;;;;;;48.72;30.45;;;;;;;;;;6221892;23;20413;-92
2023/01/07 13:36:14;;;;;;;52.75;32.70;;;;;;;;;;6220723;23;20046;-92
2023/01/07 13:39:04;;;;;;;46.67;31.02;;;;;;;;;;6220453;23;20059;-93
2023/01/07 13:41:45;;;;;;;49.88;30.48;;;;;;;;;;6222640;23;20024;-94
2023/01/07 13:44:26;;;;;;;48.28;29.83;;;;;;;;;;6222119;23;20244;-93
2023/01/07 13:46:52;;;;;;;51.80;32.60;;;;;;;;;;6220956;23;20005;-92
2023/01/07 13:49:29;;;;;;;46.00;30.20;;;;;;;;;;6220452;23;20005;-93
2023/01/07 13:51:56;;;;;;;43.08;26.83;;;;;;;;;;6222008;23;20005;-93
2023/01/07 13:54:41;;;;;;;46.28;30.75;;;;;;;;;;6221940;23;20028;-93
2023/01/07 13:57:25;;;;;;;47.42;31.15;;;;;;;;;;6220260;23;20004;-94
2023/01/07 13:59:53;;;;;;;47.75;30.10;;;;;;;;;;6220396;23;20039;-92
2023/01/07 14:02:20;;;;;;;48.47;32.88;;;;;;;;;;6221678;23;20012;-92
2023/01/07 14:04:47;;;;;;;41.05;27.75;;;;;;;;;;6221539;23;20004;-92
2023/01/07 14:07:14;;;;;;;43.47;27.55;;;;;;;;;;6220562;23;20004;-91
2023/01/07 14:09:40;;;;;;;40.88;27.05;;;;;;;;;;6220382;23;20015;-92
2023/01/07 14:12:22;;;;;;;41.40;25.58;;;;;;;;;;6220407;23;20032;-94
2023/01/07 14:14:48;;;;;;;42.03;25.92;;;;;;;;;;6221047;22;20406;-91
2023/01/07 14:17:14;;;;;;;42.97;27.23;;;;;;;;;;6194950;23;20009;-92
2023/01/07 14:19:40;;;;;;;40.90;26.00;;;;;;;;;;6195282;23;20008;-91
2023/01/07 14:22:06;;;;;;;38.25;26.58;;;;;;;;;;6221708;23;20000;-92
2023/01/07 14:24:47;;;;;;;60.30;34.05;;;;;;;;;;6221230;23;20015;-91
2023/01/07 14:27:19;;;;;;;62.05;33.17;;;;;;;;;;6220960;23;20352;-90
2023/01/07 14:29:45;;;;;;;;;;;;;;;;;;6195670;23;20004;-91
2023/01/07 14:32:12;;;;;;;64.70;36.30;;;;;;;;;;6194987;23;19907;-91
2023/01/07 14:34:39;;;;;;;74.47;44.05;;;;;;;;;;6194834;23;20095;-93
2023/01/07 14:37:13;;;;;;;81.28;47.55;;;;;;;;;;6195088;23;20009;-91
2023/01/07 14:39:40;;;;;;;76.50;45.35;;;;;;;;;;6220841;23;20055;-91
2023/01/07 14:42:21;;;;;;;74.75;45.10;;;;;;;;;;6221498;23;20004;-91
2023/01/07 14:44:50;;;;;;;74.45;43.78;;;;;;;;;;6221389;23;20001;-91
2023/01/07 14:47:35;;;;;;;92.28;48.30;;;;;;;;;;6221024;23;20004;-91
2023/01/07 14:50:01;;;;;;;67.00;38.40;;;;;;;;;;6220792;23;20000;-92
2023/01/07 14:52:34;;;;;;;82.75;42.33;;;;;;;;;;6195001;23;20009;-92
2023/01/07 14:55:29;;;;;;;81.78;40.20;;;;;;;;;;6221156;23;20009;-92
2023/01/07 14:57:58;;;;;;;72.32;39.55;;;;;;;;;;6100389;23;20100;-92
2023/01/07 15:00:24;;;;;;;76.00;38.35;;;;;;;;;;6100586;23;20064;-92
2023/01/07 15:03:16;;;;;;;74.93;41.60;;;;;;;;;;6100560;23;19999;-91
2023/01/07 15:05:55;;;;;;;93.03;51.85;;;;;;;;;;6042779;23;20010;-91
2023/01/07 15:17:24;;;;;;;110.47;60.70;;;;;;;;;;6071756;23;20413;-93
2023/01/07 15:19:50;;;;;;;123.50;66.80;;;;;;;;;;6071610;23;20086;-91
2023/01/07 15:22:29;;;;;;;130.00;73.25;;;;;;;;;;6071347;23;20506;-92
2023/01/07 15:25:17;;;;;;;155.75;84.90;;;;;;;;;;6071790;23;20046;-91
2023/01/07 15:27:48;;;;;;;160.60;89.72;;;;;;;;;;6071778;23;20015;-93
2023/01/07 15:30:20;;;;;;;146.75;87.63;;;;;;;;;;6071624;23;20015;-92
2023/01/07 15:32:47;;;;;;;132.10;79.05;;;;;;;;;;6071549;23;20006;-91
2023/01/07 15:35:20;;;;;;;148.75;82.82;;;;;;;;;;6127323;23;20016;-93
2023/01/07 15:37:48;;;;;;;132.95;77.70;;;;;;;;;;6159034;23;20110;-92
2023/01/07 15:40:18;;;;;;;128.95;75.90;;;;;;;;;;6134157;23;20021;-91
2023/01/07 15:42:45;;;;;;;134.05;76.63;;;;;;;;;;6195592;23;20011;-91
2023/01/07 15:45:21;;;;;;;136.25;78.78;;;;;;;;;;6221329;23;19997;-90
2023/01/07 15:47:48;;;;;;;141.45;83.63;;;;;;;;;;6194393;23;20160;-94
2023/01/07 15:50:23;;;;;;;150.57;90.47;;;;;;;;;;6194483;23;20015;-92
2023/01/07 15:52:50;;;;;;;152.25;87.93;;;;;;;;;;6221199;23;20080;-93